Umm Slal — V7PW3 — position and weather

sailwx.info

Track history (hours):
 
Tides and Currents Weather Stations Pressure Air Temp Water Temp Dewpoint Dewpoint Depression Visibility Wind Speed Wind Dir Waves Ship Positions

Umm Slal

Last reported at 2016-Aug-02 17:18 UTC. Time now 2016-Aug-29 05:25 UTC.
Position N 02°02' E 102°08'.
Warning: this ship's position is 26 days out of date.

Length 345 m; draft 9.4 m.

Type: Ship (hazmat cat D). MMSI: 538003300.

Date/timePositionNaut miles runAvg speedWind from/ knotsBaromVisibWave heightAir tempDewpointWater temp
2016-Aug-02 17:18N 02°02' E 102°08'1316.3
2016-Aug-02 16:31N 01°55' E 102°18'1515.2
2016-Aug-02 15:33N 01°48' E 102°32'7715.2
2016-Aug-02 10:31N 01°11' E 103°39'1415.0
2016-Aug-02 09:33N 01°13' E 103°53'1212.5
2016-Aug-02 08:33N 01°16' E 104°05'  
2016-Jul-24 20:24N 36°37' E 125°56'5016.4
2016-Jul-24 17:21N 35°54' E 125°23'1815.6
2016-Jul-24 16:13N 35°40' E 125°10'1015.3
2016-Jul-24 15:33N 35°32' E 125°03'  
Track history (hours):
 
Tides and Currents Weather Stations Pressure Air Temp Water Temp Dewpoint Dewpoint Depression Visibility Wind Speed Wind Dir Waves Ship Positions

Umm Slal

Last reported at 2016-Aug-02 17:18 UTC. Time now 2016-Aug-29 05:25 UTC.
Position N 02°02' E 102°08'.
Warning: this ship's position is 26 days out of date.

Length 345 m; draft 9.4 m.

Type: Ship (hazmat cat D). MMSI: 538003300.

Date/timePositionNaut miles runAvg speedWind from/ knotsBaromVisibWave heightAir tempDewpointWater temp
2016-Aug-02 17:18N 02°02' E 102°08'1316.3
2016-Aug-02 16:31N 01°55' E 102°18'1515.2
2016-Aug-02 15:33N 01°48' E 102°32'7715.2
2016-Aug-02 10:31N 01°11' E 103°39'1415.0
2016-Aug-02 09:33N 01°13' E 103°53'1212.5
2016-Aug-02 08:33N 01°16' E 104°05'  
2016-Jul-24 20:24N 36°37' E 125°56'5016.4
2016-Jul-24 17:21N 35°54' E 125°23'1815.6
2016-Jul-24 16:13N 35°40' E 125°10'1015.3
2016-Jul-24 15:33N 35°32' E 125°03'  

Dump ship's entire track history